Weather at Tuscaloosa Regional Airport

Public forecast

Using degrees Fahrenheit for public forecast. Weather courtesy of forecast.io.

Current aviation weather report (METAR) for Tuscaloosa Regional Airport

Retrieved 2020/10/30 18:00 UTC (47 minutes ago):

KTCL 301800Z 02011KT 10SM SCT029 15/07 A3022 RMK AO2 T01500067

Aviation forecast (TAF) for Tuscaloosa Regional Airport

Retrieved 2020/10/30 18:42 UTC (5 minutes ago):

TAF KTCL 301740Z 3018/3118 35010G18KT P6SM SCT025 BKN035 TEMPO 3018/3020 BKN025 FM302100 01008KT P6SM FEW050 FM310100 06004KT P6SM SCT250 FM311300 12004KT P6SM SCT250